Shell Fueler — WZW7217 — position and weather

sailwx.info

Track history (hours):
 
Tides and Currents Weather Stations Pressure Air Temp Water Temp Dewpoint Dewpoint Depression Visibility Wind Speed Wind Dir Waves Ship Positions

Shell Fueler

Owner: JOHN W STONE OIL DIST .LLC, GRETNA, LA. More information available from US FCC via Universal Licensing System and Coast Guard Vessel Documentation Center.

Last reported at 2015-May-30 13:10 UTC. Time now 2015-May-30 14:33 UTC.
Position N 29°56' W 090°04'.

Length 21 m; draft 2.5 m.

Type: Towing. MMSI: 366954210.

Date/timePositionNaut miles runAvg speedWind from/ knotsBaromVisibWave heightAir tempDewpointWater temp
2015-May-30 13:10N 29°56' W 090°04'0 0.0
2015-May-30 12:12N 29°56' W 090°04'0 0.3
2015-May-30 11:29N 29°56' W 090°04'1 0.5
2015-May-30 10:28N 29°56' W 090°04'0 0.0
2015-May-30 09:30N 29°55' W 090°04'0 0.0
2015-May-30 08:24N 29°55' W 090°04'0 0.0
2015-May-30 07:24N 29°55' W 090°04'0 0.0
2015-May-30 06:31N 29°55' W 090°04'0 0.0
2015-May-30 05:30N 29°56' W 090°04'0 0.1
2015-May-30 04:30N 29°55' W 090°04'0 0.0
2015-May-30 03:32N 29°55' W 090°04'0 0.0
2015-May-30 02:28N 29°55' W 090°04'0 0.0
2015-May-30 01:31N 29°55' W 090°04'2 2.1
2015-May-30 00:33N 29°57' W 090°03'4 3.3
2015-May-29 23:29N 29°56' W 089°59'0 0.0
2015-May-29 22:32N 29°56' W 089°59'4 4.1
2015-May-29 21:33N 29°55' W 090°04'0 0.0
2015-May-29 20:32N 29°55' W 090°04'0 0.0
2015-May-29 19:32N 29°55' W 090°04'0 0.0
2015-May-29 18:32N 29°55' W 090°04'0 0.0
2015-May-29 17:33N 29°55' W 090°04'0 0.0
2015-May-29 16:33N 29°55' W 090°04'0 0.0
2015-May-29 15:33N 29°55' W 090°04'0 0.2
2015-May-29 14:29N 29°55' W 090°04'2 0.2
2015-May-29 02:16N 29°57' W 090°02'2 2.1
2015-May-29 01:30N 29°57' W 090°01'8 0.5
2015-May-28 09:17N 29°49' W 090°00'7 2.0
2015-May-28 05:33N 29°55' W 090°04'2 2.1
2015-May-28 04:32N 29°57' W 090°03'5 4.4
2015-May-28 03:26N 29°55' W 089°58'5 0.2
2015-May-27 05:22N 29°55' W 090°04'0 0.0
2015-May-27 04:14N 29°55' W 090°04'0 0.0
2015-May-27 03:26N 29°55' W 090°04'0 0.1
2015-May-27 00:32N 29°56' W 090°04'0 0.1
2015-May-26 22:28N 29°55' W 090°04'0 0.0
2015-May-26 18:10N 29°56' W 090°04'0 0.1
2015-May-26 17:30N 29°55' W 090°04'0 0.1
2015-May-26 16:31N 29°56' W 090°04'8 0.4
2015-May-25 22:16N 29°54' W 089°55'6 8.7
2015-May-25 21:33N 29°57' W 090°01'3 2.6
2015-May-25 20:29N 29°55' W 090°04'0 0.0
2015-May-25 19:27N 29°55' W 090°04'0 0.0
2015-May-25 18:33N 29°55' W 090°04'0 0.0
2015-May-25 17:27N 29°55' W 090°04'0 0.0
2015-May-25 16:33N 29°55' W 090°04'0 0.1
2015-May-25 15:33N 29°55' W 090°04'2 1.6
2015-May-25 14:32N 29°55' W 090°06'0 0.0
2015-May-25 13:33N 29°55' W 090°06'0 0.0
2015-May-25 12:33N 29°55' W 090°06'0 0.2
2015-May-25 11:29N 29°55' W 090°05'2 1.7
2015-May-25 10:31N 29°55' W 090°04'0 0.2
2015-May-25 09:31N 29°56' W 090°04'0 0.0
2015-May-25 08:30N 29°56' W 090°04'0 0.0
2015-May-25 07:28N 29°56' W 090°04'0 0.1
2015-May-25 06:17N 29°56' W 090°04'0 0.0
2015-May-24 12:24N 29°55' W 090°04'0 0.2
2015-May-24 11:05N 29°56' W 090°04'0 0.2
2015-May-24 09:15N 29°55' W 090°04'0 0.0
2015-May-24 08:18N 29°55' W 090°04'0 0.0
2015-May-24 07:24N 29°55' W 090°04'3 1.3
2015-May-24 05:18N 29°53' W 090°04'24 0.5
2015-May-22 04:08N 29°35' W 090°23'24 1.2
2015-May-21 07:22N 29°53' W 090°05'30 4.4
2015-May-21 00:30N 29°34' W 090°31'6 6.1
2015-May-20 23:34N 29°35' W 090°38'4 4.5
2015-May-20 22:34N 29°35' W 090°43'6 5.9
2015-May-20 21:32N 29°32' W 090°49'  
Track history (hours):
 
Tides and Currents Weather Stations Pressure Air Temp Water Temp Dewpoint Dewpoint Depression Visibility Wind Speed Wind Dir Waves Ship Positions

Shell Fueler

Owner: JOHN W STONE OIL DIST .LLC, GRETNA, LA. More information available from US FCC via Universal Licensing System and Coast Guard Vessel Documentation Center.

Last reported at 2015-May-30 13:10 UTC. Time now 2015-May-30 14:33 UTC.
Position N 29°56' W 090°04'.

Length 21 m; draft 2.5 m.

Type: Towing. MMSI: 366954210.

Date/timePositionNaut miles runAvg speedWind from/ knotsBaromVisibWave heightAir tempDewpointWater temp
2015-May-30 13:10N 29°56' W 090°04'0 0.0
2015-May-30 12:12N 29°56' W 090°04'0 0.3
2015-May-30 11:29N 29°56' W 090°04'1 0.5
2015-May-30 10:28N 29°56' W 090°04'0 0.0
2015-May-30 09:30N 29°55' W 090°04'0 0.0
2015-May-30 08:24N 29°55' W 090°04'0 0.0
2015-May-30 07:24N 29°55' W 090°04'0 0.0
2015-May-30 06:31N 29°55' W 090°04'0 0.0
2015-May-30 05:30N 29°56' W 090°04'0 0.1
2015-May-30 04:30N 29°55' W 090°04'0 0.0
2015-May-30 03:32N 29°55' W 090°04'0 0.0
2015-May-30 02:28N 29°55' W 090°04'0 0.0
2015-May-30 01:31N 29°55' W 090°04'2 2.1
2015-May-30 00:33N 29°57' W 090°03'4 3.3
2015-May-29 23:29N 29°56' W 089°59'0 0.0
2015-May-29 22:32N 29°56' W 089°59'4 4.1
2015-May-29 21:33N 29°55' W 090°04'0 0.0
2015-May-29 20:32N 29°55' W 090°04'0 0.0
2015-May-29 19:32N 29°55' W 090°04'0 0.0
2015-May-29 18:32N 29°55' W 090°04'0 0.0
2015-May-29 17:33N 29°55' W 090°04'0 0.0
2015-May-29 16:33N 29°55' W 090°04'0 0.0
2015-May-29 15:33N 29°55' W 090°04'0 0.2
2015-May-29 14:29N 29°55' W 090°04'2 0.2
2015-May-29 02:16N 29°57' W 090°02'2 2.1
2015-May-29 01:30N 29°57' W 090°01'8 0.5
2015-May-28 09:17N 29°49' W 090°00'7 2.0
2015-May-28 05:33N 29°55' W 090°04'2 2.1
2015-May-28 04:32N 29°57' W 090°03'5 4.4
2015-May-28 03:26N 29°55' W 089°58'5 0.2
2015-May-27 05:22N 29°55' W 090°04'0 0.0
2015-May-27 04:14N 29°55' W 090°04'0 0.0
2015-May-27 03:26N 29°55' W 090°04'0 0.1
2015-May-27 00:32N 29°56' W 090°04'0 0.1
2015-May-26 22:28N 29°55' W 090°04'0 0.0
2015-May-26 18:10N 29°56' W 090°04'0 0.1
2015-May-26 17:30N 29°55' W 090°04'0 0.1
2015-May-26 16:31N 29°56' W 090°04'8 0.4
2015-May-25 22:16N 29°54' W 089°55'6 8.7
2015-May-25 21:33N 29°57' W 090°01'3 2.6
2015-May-25 20:29N 29°55' W 090°04'0 0.0
2015-May-25 19:27N 29°55' W 090°04'0 0.0
2015-May-25 18:33N 29°55' W 090°04'0 0.0
2015-May-25 17:27N 29°55' W 090°04'0 0.0
2015-May-25 16:33N 29°55' W 090°04'0 0.1
2015-May-25 15:33N 29°55' W 090°04'2 1.6
2015-May-25 14:32N 29°55' W 090°06'0 0.0
2015-May-25 13:33N 29°55' W 090°06'0 0.0
2015-May-25 12:33N 29°55' W 090°06'0 0.2
2015-May-25 11:29N 29°55' W 090°05'2 1.7
2015-May-25 10:31N 29°55' W 090°04'0 0.2
2015-May-25 09:31N 29°56' W 090°04'0 0.0
2015-May-25 08:30N 29°56' W 090°04'0 0.0
2015-May-25 07:28N 29°56' W 090°04'0 0.1
2015-May-25 06:17N 29°56' W 090°04'0 0.0
2015-May-24 12:24N 29°55' W 090°04'0 0.2
2015-May-24 11:05N 29°56' W 090°04'0 0.2
2015-May-24 09:15N 29°55' W 090°04'0 0.0
2015-May-24 08:18N 29°55' W 090°04'0 0.0
2015-May-24 07:24N 29°55' W 090°04'3 1.3
2015-May-24 05:18N 29°53' W 090°04'24 0.5
2015-May-22 04:08N 29°35' W 090°23'24 1.2
2015-May-21 07:22N 29°53' W 090°05'30 4.4
2015-May-21 00:30N 29°34' W 090°31'6 6.1
2015-May-20 23:34N 29°35' W 090°38'4 4.5
2015-May-20 22:34N 29°35' W 090°43'6 5.9
2015-May-20 21:32N 29°32' W 090°49'  

Dump ship's entire track history